Crawford, NE

12:12 PM MST on March 04, 2015 (GMT -0700)
Alliance Municipal | Change Station
CLOSE
Current Station
Airport
Location: Alliance,
Elevation: 3930 ft
Nearby Weather Stations

Elev 3930 ft 42.06 °N, 102.80 °W | Updated 19 minutes ago

Clear
Clear
20 °F
Feels Like 5 °F
N
17
Wind Variable Wind from NNW

Today
High -- | Low -- °F
--% Chance of Precip.
Yesterday
High -- | Low -- °F
Precip. -- in
6:24 AM 5:46 PM
Waxing Gibbous, 99% visible
Pressure 30.35 in
Visibility 10.0 miles
Clouds Clear
Windchill 5 °F
Dew Point 1 °F
Humidity 44%
Rainfall 0.00 in
Snow Depth Not available.
UV 6 out of 12
Pollen .40 out of 12
Air Quality Not available.
Flu Activity Not available.
METAR KAIA 041853Z AUTO 33015KT 10SM CLR M07/M17 A3018 RMK AO2 SLP277 T10671172

More Conditions Fewer Conditions

Pressure 30.35 in
Visibility 10.0 miles
Clouds Clear
Windchill 5 °F
Dew Point 1 °F
Humidity 44%
Rainfall 0.00 in
Snow Depth Not available.
UV 6 out of 12
Pollen .40 out of 12
Air Quality Not available.
Flu Activity Not available.
METAR KAIA 041853Z AUTO 33015KT 10SM CLR M07/M17 A3018 RMK AO2 SLP277 T10671172

More Conditions Fewer Conditions

10-Day Weather Forecast

Almanac

Astronomy

Mar. 04, 2015 Rise Set
Actual Time
Civil Twilight
Nautical Twilight
Astronomical Twilight
Moon
Length of Visible Light
Length of Day
Tomorrow will be .
, % of the Moon is Illuminated

Today's Extremes

State Highs State Lows

Community

WunderPhotos

Upload Photos

1,802,543 photos uploaded!

WunderBlogs® & News

Nearby

Air Quality

  Air Quality AQ Index Pollutant
Not available.

Snow Depth

Station Depth Elevation

Earthquake Activity

City Distance Mag. Time & Date
Minimum magnitude displayed is 2.5.

Coastal Water Temperatures

Place Temperature

Nearby Weather Stations